logo
Search for airport 
image banner adimage banner adimage banner ad
image banner ad

EHVEN - Venlo

Located in Venlo, Netherlands

ICAO - , IATA -

Data provided by Airmate  

General information

Coordinates: N51°21'48" E6°13'0"
Elevation is 141 feet MSL.
 
View others Airports in Limburg

Operational data

Special qualification required
Current time UTC:
Current local time:
Weather at : EDLN - Moenchengladbach ( 25 km )
METAR: EDLN 161850Z 22008KT 180V250 9999 FEW031 20/13 Q1014
TAF: TAF EDLN 161700Z 1618/1703 23006KT 9999 SCT030
View NOTAMs / SUP AIP / TFR affecting this airport [VIEW]
Communications frequencies: [VIEW]

Runways:

RWY identifierQFULength (ft)Width (ft)SurfaceLDA (ft)
0990°2953164GRASS
27270°2953164GRASS
11108°2625164GRASS
29288°2625164GRASS

Airport contact information

Address: Venlo Netherlands

Other aviation service providers

Flight schools

Cycloon Holland

Cycloon Holland

Wings To Fly B.V.

Wings To Fly B.V.
jac.rutten@wingstofly.nl+31631685551
+31631685551

Aviation club (not for profit)

Venlo Eindhoven Zweefvliegclub

Venlo Eindhoven Zweefvliegclub

Satellite view of EHVEN